Wilsall, Montana
Current Conditions -  °F | °C
As of 5:53 PM on Saturday 25 Oct 2014 (Local Time) from KLVM Reporting Station
Clear Clear  
Wind Chill: 72°   Ceiling: Unl
Heat Index: 72°   Visibility: 10mi
Dew Point: 24°   Wind: 20mph
Humidity: 17%   Direction: 240°WSW
Pressure: 29.77"   Gusts: 33mph
Location:  45.99°N, 110.66°W
Report Text: KLVM 252353Z AUTO 24017G29KT 10SM CLR 22/M04 A2977 RMK AO2 PK WND 24029/2345 SLP063 T02221044 10233 20117 56018
Loading
Personal Weather Stations






























Interactive Weather Map
Tropical Storm Tracking
New forecast layout! Learn more

10-Day Weather Forecast

Advertisements
Track Severe Weather on mobile